Weather at Bologna Guglielmo Marconi Airport

Public forecast

Using degrees Celsius for public forecast. Weather courtesy of forecast.io.

Current aviation weather report (METAR) for Bologna Guglielmo Marconi Airport

Retrieved 2021/07/27 08:50 UTC (12 minutes ago):

LIPE 270850Z 06005KT 020V100 8000 NSC 26/22 Q1015

Aviation forecast (TAF) for Bologna Guglielmo Marconi Airport

Retrieved 2021/07/27 06:00 UTC (3 hours ago):

TAF LIPE 270500Z 2706/2806 VRB06KT 9999 SCT060 TEMPO 2706/2709 TSRA BECMG 2708/2710 10010KT BECMG 2712/2714 21014KT TEMPO 2712/2716 TSRA BECMG 2718/2720 VRB05KT